Time;durP1;ratioP1;P1;durP2;ratioP2;P2;SDS_P1;SDS_P2;PMS_P1;PMS_P2;Temp;Humidity;BMP_temperature;BMP_pressure;BME280_temperature;BME280_humidity;BME280_pressure;Samples;Min_cycle;Max_cycle;Signal;HPM_P1;HPM_P2
2021/11/26 00:00:43;;;;;;;17.12;13.60;;;;;;;3.94;82.67;99493.38;1738323;82;21211;-76
2021/11/26 00:03:11;;;;;;;20.10;14.15;;;;;;;3.92;82.75;99478.98;1733392;81;21498;-77
2021/11/26 00:05:38;;;;;;;16.12;12.05;;;;;;;3.93;82.75;99475.81;1710447;81;21014;-75
2021/11/26 00:08:07;;;;;;;18.65;13.70;;;;;;;3.90;82.93;99467.73;1720456;81;20978;-73
2021/11/26 00:10:35;;;;;;;21.20;12.73;;;;;;;3.90;82.93;99467.73;1735317;81;21089;-74
2021/11/26 00:13:05;;;;;;;16.40;13.13;;;;;;;3.92;82.88;99460.87;1748760;81;21787;-74
2021/11/26 00:18:04;;;;;;;23.47;14.20;;;;;;;3.92;82.86;99456.38;1696115;82;21679;-73
2021/11/26 00:20:26;;;;;;;21.15;13.25;;;;;;;3.95;82.82;99459.11;1737483;81;21563;-75
2021/11/26 00:22:54;;;;;;;23.12;13.55;;;;;;;3.95;82.81;99462.59;1734961;82;30634;-74
2021/11/26 00:25:20;;;;;;;22.27;13.90;;;;;;;3.97;82.84;99462.89;1735025;82;21133;-76
2021/11/26 00:27:48;;;;;;;22.52;13.95;;;;;;;3.94;82.91;99455.62;1735103;82;20955;-73
2021/11/26 00:30:15;;;;;;;19.25;11.97;;;;;;;3.93;83.01;99450.55;1709796;82;21047;-72
2021/11/26 00:32:42;;;;;;;12.93;9.93;;;;;;;3.93;83.11;99451.87;1736404;82;21021;-72
2021/11/26 00:35:11;;;;;;;16.73;12.10;;;;;;;3.93;83.12;99454.53;1745681;81;20897;-74
2021/11/26 00:37:39;;;;;;;15.88;11.55;;;;;;;3.97;83.08;99447.75;1768932;81;21147;-73
2021/11/26 00:40:08;;;;;;;16.55;11.60;;;;;;;4.03;82.94;99446.88;1769477;81;21012;-73
2021/11/26 00:42:37;;;;;;;18.23;14.18;;;;;;;4.05;82.85;99440.02;1744988;81;21030;-73
2021/11/26 00:45:05;;;;;;;15.03;10.98;;;;;;;4.08;82.76;99439.07;1738343;81;21138;-73
2021/11/26 00:47:32;;;;;;;16.90;11.53;;;;;;;4.12;82.68;99432.83;1683433;84;21566;-74
2021/11/26 00:50:01;;;;;;;14.73;11.93;;;;;;;4.15;82.60;99431.88;1708676;83;21107;-74
2021/11/26 00:52:27;;;;;;;18.70;13.08;;;;;;;4.14;82.58;99421.44;1661559;84;21917;-73
2021/11/26 00:54:55;;;;;;;16.23;11.08;;;;;;;4.17;82.57;99433.79;1726220;81;20978;-74
2021/11/26 00:57:22;;;;;;;16.48;12.25;;;;;;;4.19;82.51;99410.45;1761416;80;21507;-72
2021/11/26 00:59:49;;;;;;;15.08;12.70;;;;;;;4.19;82.51;99410.45;1742598;81;21543;-74
2021/11/26 01:02:24;;;;;;;16.30;10.85;;;;;;;4.23;82.38;99401.52;1742720;81;22087;-73
2021/11/26 01:04:50;;;;;;;20.25;14.05;;;;;;;4.19;82.43;99391.00;1742728;81;21029;-72
2021/11/26 01:07:18;;;;;;;22.32;15.10;;;;;;;4.14;82.66;99398.81;1764397;81;21072;-73
2021/11/26 01:09:45;;;;;;;17.92;12.23;;;;;;;4.14;82.64;99383.67;1712752;82;21092;-74
2021/11/26 01:12:13;;;;;;;20.97;14.70;;;;;;;4.09;82.84;99388.81;1738394;81;21026;-74
2021/11/26 01:14:42;;;;;;;18.07;14.28;;;;;;;4.06;82.99;99384.45;1713184;82;21875;-74
2021/11/26 01:17:09;;;;;;;19.75;14.33;;;;;;;3.98;83.32;99370.88;1738319;82;21495;-71
2021/11/26 01:19:37;;;;;;;21.17;14.50;;;;;;;3.95;83.42;99369.98;1738309;82;21002;-74
2021/11/26 01:22:05;;;;;;;15.32;12.58;;;;;;;3.91;83.61;99355.48;1713208;82;21014;-74
2021/11/26 01:24:32;;;;;;;15.83;12.03;;;;;;;3.82;83.90;99364.24;1712921;82;21062;-75
2021/11/26 01:27:02;;;;;;;18.95;14.78;;;;;;;3.81;83.94;99366.59;1738024;82;21881;-76
2021/11/26 01:29:28;;;;;;;15.98;12.37;;;;;;;3.81;83.90;99365.27;1737952;82;21033;-79
2021/11/26 01:31:55;;;;;;;23.42;13.65;;;;;;;3.83;83.93;99363.22;1740390;81;21093;-77
2021/11/26 01:34:22;;;;;;;20.52;15.23;;;;;;;3.81;83.91;99350.64;1738187;82;21054;-78
2021/11/26 01:36:50;;;;;;;19.10;12.70;;;;;;;3.78;84.05;99363.56;1713063;82;21009;-78
2021/11/26 01:39:17;;;;;;;19.15;12.80;;;;;;;3.77;84.11;99361.92;1712910;82;21029;-78
2021/11/26 01:41:45;;;;;;;16.65;12.85;;;;;;;3.79;84.09;99360.66;1751184;81;20982;-78
2021/11/26 01:44:12;;;;;;;16.17;12.28;;;;;;;3.79;84.13;99364.66;1768913;80;20962;-75
2021/11/26 01:46:43;;;;;;;17.87;13.13;;;;;;;3.83;84.00;99366.39;1739701;81;21581;-75
2021/11/26 01:49:11;;;;;;;14.28;12.40;;;;;;;3.84;83.88;99362.17;1670331;84;21567;-75
2021/11/26 01:51:38;;;;;;;15.43;13.00;;;;;;;3.83;83.85;99363.22;1660429;85;22088;-77
2021/11/26 01:54:05;;;;;;;17.32;12.30;;;;;;;3.84;83.77;99356.03;1654119;85;21046;-76
2021/11/26 01:56:33;;;;;;;23.55;15.70;;;;;;;3.83;83.72;99364.55;1726861;81;20971;-72
2021/11/26 01:59:02;;;;;;;18.30;11.22;;;;;;;3.82;83.72;99365.58;1731571;81;21099;-72
2021/11/26 02:01:30;;;;;;;18.98;13.88;;;;;;;3.82;83.66;99366.91;1752784;81;21528;-72
2021/11/26 02:03:57;;;;;;;17.30;13.72;;;;;;;3.84;83.62;99361.34;1751950;81;21125;-75
2021/11/26 02:06:24;;;;;;;19.27;12.68;;;;;;;3.88;83.50;99355.41;1731102;81;21006;-74
2021/11/26 02:08:51;;;;;;;15.75;13.30;;;;;;;3.85;83.30;99357.16;1730890;81;21024;-77
2021/11/26 02:11:18;;;;;;;16.85;12.68;;;;;;;3.86;83.27;99353.98;1750118;81;21021;-74
2021/11/26 02:13:45;;;;;;;14.28;12.78;;;;;;;3.87;83.21;99353.78;1685113;81;21173;-76
2021/11/26 02:16:13;;;;;;;15.75;11.70;;;;;;;3.89;83.06;99349.04;1731088;81;21076;-77
2021/11/26 02:18:48;;;;;;;15.53;12.43;;;;;;;3.88;82.91;99338.13;1731130;81;21049;-76
2021/11/26 02:21:17;;;;;;;19.17;13.28;;;;;;;3.85;82.99;99335.05;1752749;81;21118;-73
2021/11/26 02:23:47;;;;;;;12.60;11.30;;;;;;;3.81;83.00;99333.86;1752912;81;20982;-74
2021/11/26 02:26:14;;;;;;;17.55;12.78;;;;;;;3.84;82.95;99324.11;1752682;81;21034;-74
2021/11/26 02:28:42;;;;;;;17.07;12.43;;;;;;;3.86;82.85;99338.02;1752917;81;21024;-76
2021/11/26 02:31:09;;;;;;;21.23;14.50;;;;;;;3.87;82.66;99335.16;1749600;81;21014;-79
2021/11/26 02:33:37;;;;;;;17.57;11.85;;;;;;;3.88;82.49;99334.64;1753325;81;21050;-78
2021/11/26 02:36:04;;;;;;;14.83;11.12;;;;;;;3.86;82.40;99332.19;1753060;81;21057;-77
2021/11/26 02:38:31;;;;;;;15.85;11.68;;;;;;;3.87;82.38;99331.16;1707356;81;21078;-76
2021/11/26 02:40:59;;;;;;;14.93;11.63;;;;;;;3.81;82.36;99353.30;1749620;81;21737;-86
2021/11/26 02:43:26;;;;;;;16.00;11.15;;;;;;;3.78;82.34;99333.79;1721818;82;21014;-74
2021/11/26 02:45:53;;;;;;;18.50;11.40;;;;;;;3.76;82.38;99339.83;1722030;83;20990;-74
2021/11/26 02:48:20;;;;;;;17.37;10.93;;;;;;;3.77;82.45;99340.13;1733223;82;21020;-73
2021/11/26 02:50:48;;;;;;;14.25;12.33;;;;;;;3.78;82.43;99341.77;1742661;81;21096;-77
2021/11/26 02:53:18;;;;;;;15.48;11.97;;;;;;;3.80;82.44;99337.55;1721902;80;20977;-74
2021/11/26 02:55:45;;;;;;;15.45;11.78;;;;;;;3.84;82.40;99335.56;1738658;82;21616;-80
2021/11/26 02:58:12;;;;;;;15.80;11.38;;;;;;;3.85;82.14;99333.73;1746974;80;21056;-79
2021/11/26 03:00:40;;;;;;;16.85;12.00;;;;;;;3.76;82.22;99336.34;1764721;80;21639;-79
2021/11/26 03:03:07;;;;;;;14.80;11.25;;;;;;;3.64;82.48;99333.57;1734558;81;21085;-82
2021/11/26 03:05:36;;;;;;;20.90;11.48;;;;;;;3.63;82.65;99323.14;1725778;82;21177;-81
2021/11/26 03:08:06;;;;;;;14.25;11.08;;;;;;;3.64;82.70;99336.74;1745476;80;21067;-80
2021/11/26 03:10:35;;;;;;;15.40;11.80;;;;;;;3.64;82.70;99326.92;1702095;81;21012;-77
2021/11/26 03:13:06;;;;;;;12.75;11.38;;;;;;;3.57;82.78;99318.16;1712718;82;21001;-80
2021/11/26 03:15:36;;;;;;;15.58;10.85;;;;;;;3.59;82.81;99339.22;1732515;82;21478;-83
2021/11/26 03:18:04;;;;;;;22.58;12.28;;;;;;;3.57;82.82;99327.47;1711047;82;21014;-80
2021/11/26 03:20:31;;;;;;;14.80;10.82;;;;;;;3.54;82.86;99334.55;1733328;82;21008;-78
2021/11/26 03:22:58;;;;;;;17.07;13.03;;;;;;;3.42;83.31;99330.91;1712234;82;20993;-81
2021/11/26 03:25:26;;;;;;;14.70;11.45;;;;;;;3.35;83.53;99323.50;1733680;81;21038;-83
2021/11/26 03:27:53;;;;;;;16.60;12.50;;;;;;;3.32;83.90;99320.73;1745155;80;20999;-78
2021/11/26 03:30:21;;;;;;;18.70;12.40;;;;;;;3.31;83.88;99318.31;1723465;82;21204;-81
2021/11/26 03:32:48;;;;;;;16.57;11.65;;;;;;;3.28;84.11;99304.92;1701013;84;21043;-85
2021/11/26 03:35:17;;;;;;;10.60;7.92;;;;;;;3.24;84.17;99309.03;1686099;82;21051;-80
2021/11/26 03:37:45;;;;;;;15.35;12.35;;;;;;;3.20;84.65;99306.50;1712829;82;21075;-80
2021/11/26 03:40:13;;;;;;;14.95;10.63;;;;;;;3.17;84.87;99302.92;1725538;82;21099;-78
2021/11/26 03:42:42;;;;;;;15.08;11.22;;;;;;;3.16;84.98;99301.83;1744598;81;21012;-79
2021/11/26 03:45:09;;;;;;;19.98;13.05;;;;;;;3.11;85.43;99299.80;1725611;82;21020;-82
2021/11/26 03:47:37;;;;;;;17.82;12.85;;;;;;;3.12;85.38;99305.39;1748763;80;21131;-79
2021/11/26 03:50:06;;;;;;;15.98;12.53;;;;;;;3.07;85.61;99302.05;1739487;82;21070;-81
2021/11/26 03:52:33;;;;;;;18.80;12.78;;;;;;;3.07;85.67;99311.34;1695279;82;21033;-82
2021/11/26 03:55:01;;;;;;;15.78;12.82;;;;;;;3.06;85.78;99322.20;1740155;82;21143;-82
2021/11/26 03:57:28;;;;;;;17.30;12.28;;;;;;;3.15;85.79;99323.59;1738659;82;21115;-83
2021/11/26 03:59:55;;;;;;;16.45;12.85;;;;;;;3.14;85.68;99327.78;1738437;82;21528;-81
2021/11/26 04:02:22;;;;;;;16.82;11.43;;;;;;;3.14;85.64;99323.28;1738456;82;21546;-80
2021/11/26 04:04:49;;;;;;;16.10;12.82;;;;;;;3.18;85.61;99313.04;1738344;81;21015;-79
2021/11/26 04:07:17;;;;;;;15.38;12.13;;;;;;;3.20;85.51;99304.36;1739024;81;21080;-78
2021/11/26 04:09:44;;;;;;;13.08;11.65;;;;;;;3.18;85.62;99298.42;1737787;82;21904;-78
2021/11/26 04:12:11;;;;;;;16.42;12.35;;;;;;;3.19;85.61;99298.73;1737925;82;21038;-77
2021/11/26 04:14:40;;;;;;;17.95;12.93;;;;;;;3.19;85.61;99292.09;1712679;82;20986;-76
2021/11/26 04:17:10;;;;;;;18.85;11.90;;;;;;;3.17;85.63;99294.95;1713061;82;21578;-83
2021/11/26 04:19:37;;;;;;;16.87;12.82;;;;;;;3.14;85.85;99289.25;1738362;81;22241;-75
2021/11/26 04:22:05;;;;;;;14.78;10.95;;;;;;;3.07;86.12;99282.63;1712963;82;21022;-76
2021/11/26 04:24:32;;;;;;;12.73;10.90;;;;;;;3.08;86.27;99282.94;1713336;82;21611;-80
2021/11/26 04:27:01;;;;;;;7.28;6.12;;;;;;;3.14;86.25;99288.74;1758236;81;21003;-80
2021/11/26 04:29:29;;;;;;;19.07;15.68;;;;;;;3.18;86.19;99287.80;1745503;81;21019;-80
2021/11/26 04:31:56;;;;;;;17.05;12.07;;;;;;;3.16;86.12;99296.52;1713756;82;21316;-80
2021/11/26 04:34:23;;;;;;;14.87;11.03;;;;;;;3.13;86.15;99297.73;1738231;82;21028;-82
2021/11/26 04:36:50;;;;;;;18.82;12.10;;;;;;;3.13;86.27;99300.91;1738452;82;20981;-81
2021/11/26 04:39:18;;;;;;;12.13;10.08;;;;;;;3.10;86.32;99305.32;1713133;82;21113;-78
2021/11/26 04:41:45;;;;;;;16.25;11.73;;;;;;;3.14;86.34;99301.20;1738334;82;21532;-82
2021/11/26 04:44:13;;;;;;;14.58;11.53;;;;;;;3.17;86.28;99300.27;1738332;81;21980;-80
2021/11/26 04:46:40;;;;;;;14.80;11.30;;;;;;;3.16;86.19;99300.50;1726237;81;21029;-80
2021/11/26 04:49:09;;;;;;;15.13;11.88;;;;;;;3.10;86.26;99299.50;1747997;80;21006;-79
2021/11/26 04:51:37;;;;;;;12.13;10.20;;;;;;;3.09;86.29;99300.52;1737243;81;20969;-77
2021/11/26 04:54:04;;;;;;;15.38;11.08;;;;;;;3.10;86.31;99293.36;1714507;81;21076;-79
2021/11/26 04:56:32;;;;;;;12.98;10.70;;;;;;;3.04;86.53;99281.23;1735573;81;21027;-75
2021/11/26 04:58:59;;;;;;;16.17;10.53;;;;;;;2.99;86.62;99280.22;1735117;82;21020;-78
2021/11/26 05:01:26;;;;;;;14.18;10.23;;;;;;;2.96;86.72;99277.48;1684097;79;21042;-77
2021/11/26 05:03:54;;;;;;;15.25;11.03;;;;;;;2.98;86.85;99283.90;1713291;82;20984;-80
2021/11/26 05:06:22;;;;;;;17.77;12.10;;;;;;;3.00;86.82;99280.02;1718989;81;21008;-81
2021/11/26 05:08:51;;;;;;;14.05;11.55;;;;;;;2.96;86.77;99276.67;1727200;82;21091;-77
2021/11/26 05:11:18;;;;;;;15.60;11.05;;;;;;;2.94;86.80;99280.04;1719802;82;21012;-82
2021/11/26 05:13:46;;;;;;;14.55;13.00;;;;;;;2.93;86.90;99285.86;1733805;82;21020;-80
2021/11/26 05:16:14;;;;;;;13.60;11.18;;;;;;;2.93;86.99;99283.72;1733370;82;21568;-79
2021/11/26 05:18:42;;;;;;;14.65;11.38;;;;;;;2.86;87.11;99293.56;1732662;81;21518;-81
2021/11/26 05:21:11;;;;;;;17.48;11.88;;;;;;;2.80;87.28;99286.42;1732176;81;21316;-80
2021/11/26 05:23:39;;;;;;;15.88;10.98;;;;;;;2.73;87.53;99283.81;1680919;84;21150;-81
2021/11/26 05:26:06;;;;;;;18.85;12.68;;;;;;;2.76;87.73;99290.53;1710474;83;21032;-80
2021/11/26 05:28:33;;;;;;;13.20;11.30;;;;;;;2.79;87.68;99295.41;1686852;84;21075;-81
2021/11/26 05:31:00;;;;;;;12.95;10.30;;;;;;;2.77;87.84;99294.31;1709704;82;21021;-80
2021/11/26 05:33:28;;;;;;;16.52;12.73;;;;;;;2.76;88.06;99294.52;1732012;82;21189;-82
2021/11/26 05:35:55;;;;;;;14.07;11.55;;;;;;;2.77;87.97;99285.53;1737082;82;21001;-80
2021/11/26 05:38:22;;;;;;;16.55;12.53;;;;;;;2.78;87.95;99283.19;1725590;82;21534;-81
2021/11/26 05:40:50;;;;;;;18.32;13.62;;;;;;;2.77;87.95;99279.70;1725539;82;21103;-79
2021/11/26 05:43:17;;;;;;;14.87;12.30;;;;;;;2.76;88.12;99284.71;1725886;82;21005;-79
2021/11/26 05:45:46;;;;;;;14.68;9.80;;;;;;;2.71;88.38;99280.54;1753057;80;21028;-78
2021/11/26 05:48:13;;;;;;;18.02;14.83;;;;;;;2.63;88.95;99288.23;1750874;80;20996;-77
2021/11/26 05:50:40;;;;;;;14.85;12.47;;;;;;;2.63;89.05;99282.10;1724703;82;20920;-76
2021/11/26 05:53:07;;;;;;;18.73;14.60;;;;;;;2.66;89.11;99286.98;1705281;83;21011;-80
2021/11/26 05:55:37;;;;;;;14.35;10.70;;;;;;;2.66;89.19;99290.14;1664361;84;21062;-81
2021/11/26 05:58:05;;;;;;;16.48;12.98;;;;;;;2.71;89.18;99279.72;1677162;84;20990;-83
2021/11/26 06:00:34;;;;;;;16.07;12.60;;;;;;;2.73;89.13;99284.32;1638383;83;21515;-79
2021/11/26 06:03:01;;;;;;;21.48;15.00;;;;;;;2.74;89.20;99290.73;1683003;84;21090;-77
2021/11/26 06:05:29;;;;;;;17.98;12.93;;;;;;;2.76;89.25;99284.71;1705648;83;21062;-81
2021/11/26 06:07:56;;;;;;;21.48;13.10;;;;;;;2.73;89.33;99281.67;1690759;83;20951;-81
2021/11/26 06:10:23;;;;;;;29.42;16.23;;;;;;;2.73;89.44;99279.02;1729044;81;21735;-81
2021/11/26 06:12:52;;;;;;;15.20;12.35;;;;;;;2.70;89.67;99266.95;1730556;81;21113;-84
2021/11/26 06:15:21;;;;;;;14.20;10.75;;;;;;;2.74;89.69;99273.98;1683663;83;21021;-83
2021/11/26 06:17:48;;;;;;;16.60;11.68;;;;;;;2.84;89.69;99275.17;1655639;85;21131;-81
2021/11/26 06:20:15;;;;;;;17.35;13.15;;;;;;;2.91;89.54;99265.86;1677045;84;21127;-82
2021/11/26 06:22:45;;;;;;;16.12;12.55;;;;;;;2.89;89.26;99261.27;1677722;84;21125;-82
2021/11/26 06:25:15;;;;;;;14.40;12.28;;;;;;;2.88;89.26;99273.72;1678384;85;20911;-81
2021/11/26 06:27:44;;;;;;;16.40;12.78;;;;;;;2.88;89.21;99272.91;1680849;84;20935;-81
2021/11/26 06:30:12;;;;;;;16.40;13.30;;;;;;;2.89;89.22;99275.88;1683462;84;21007;-84
2021/11/26 06:32:40;;;;;;;13.45;10.98;;;;;;;2.91;89.18;99275.98;1684077;84;21050;-83
2021/11/26 06:35:09;;;;;;;16.82;12.73;;;;;;;2.89;89.10;99279.34;1726519;83;22815;-82
2021/11/26 06:37:36;;;;;;;15.98;11.45;;;;;;;2.88;89.11;99278.22;1662903;84;21555;-71
2021/11/26 06:40:05;;;;;;;16.35;12.95;;;;;;;2.90;89.17;99284.97;1658617;85;20900;-82
2021/11/26 06:42:34;;;;;;;19.12;12.88;;;;;;;2.95;89.18;99290.97;1683147;83;21073;-84
2021/11/26 06:45:01;;;;;;;16.07;11.18;;;;;;;3.05;89.14;99288.69;1710798;83;21539;-81
2021/11/26 06:47:28;;;;;;;14.30;12.35;;;;;;;3.11;88.82;99300.31;1730793;83;21018;-83
2021/11/26 06:49:59;;;;;;;16.57;11.73;;;;;;;3.17;88.58;99295.46;1725544;81;21039;-84
2021/11/26 06:52:28;;;;;;;14.83;12.00;;;;;;;3.22;88.33;99296.46;1703086;83;21030;-84
2021/11/26 06:54:59;;;;;;;15.48;11.65;;;;;;;3.21;88.13;99294.86;1724405;83;21058;-83
2021/11/26 06:57:27;;;;;;;18.73;11.45;;;;;;;3.23;88.12;99293.30;1727521;81;21614;-82
2021/11/26 06:59:55;;;;;;;16.10;11.25;;;;;;;3.29;87.83;99289.80;1739987;81;21138;-82
2021/11/26 07:02:22;;;;;;;16.17;11.43;;;;;;;3.28;87.72;99299.61;1724216;81;21030;-83
2021/11/26 07:04:49;;;;;;;11.60;9.08;;;;;;;3.34;87.79;99298.77;1703582;83;20990;-82
2021/11/26 07:07:18;;;;;;;13.98;10.93;;;;;;;3.44;87.60;99290.33;1724314;83;21614;-81
2021/11/26 07:09:47;;;;;;;15.20;11.65;;;;;;;3.52;87.25;99307.34;1723552;81;21575;-81
2021/11/26 07:12:14;;;;;;;13.88;11.75;;;;;;;3.48;86.53;99292.86;1707717;82;21174;-82
2021/11/26 07:14:43;;;;;;;13.35;10.23;;;;;;;3.48;86.40;99295.52;1716622;82;21492;-84
2021/11/26 07:17:13;;;;;;;15.05;11.00;;;;;;;3.51;86.36;99291.91;1735487;82;21142;-81
2021/11/26 07:19:46;;;;;;;13.93;9.98;;;;;;;3.49;86.15;99287.84;1735889;82;21458;-81
2021/11/26 07:22:11;;;;;;;13.80;10.98;;;;;;;3.53;86.06;99281.07;1723919;82;21499;-79
2021/11/26 07:24:38;;;;;;;17.95;11.20;;;;;;;3.57;85.96;99290.24;1722826;83;21071;-76
2021/11/26 07:27:06;;;;;;;13.38;9.80;;;;;;;3.58;85.82;99286.56;1706462;81;21135;-79
2021/11/26 07:29:33;;;;;;;14.45;11.78;;;;;;;3.63;85.65;99292.05;1752733;81;21504;-79
2021/11/26 07:32:00;;;;;;;14.50;10.70;;;;;;;3.64;85.41;99284.89;1740452;81;21105;-78
2021/11/26 07:34:28;;;;;;;14.73;12.47;;;;;;;3.65;85.34;99281.18;1677901;83;21128;-77
2021/11/26 07:36:55;;;;;;;15.18;11.60;;;;;;;3.64;85.35;99266.28;1696493;83;21172;-80
2021/11/26 07:39:24;;;;;;;11.88;9.95;;;;;;;3.69;85.38;99282.41;1702592;81;21083;-81
2021/11/26 07:41:52;;;;;;;11.88;8.43;;;;;;;3.79;85.17;99276.09;1739751;81;21149;-79
2021/11/26 07:44:19;;;;;;;21.93;11.38;;;;;;;3.83;84.71;99275.45;1722870;83;21002;-79
2021/11/26 07:46:46;;;;;;;15.35;11.53;;;;;;;3.82;84.56;99282.30;1725105;81;21007;-77
2021/11/26 07:49:13;;;;;;;12.07;9.95;;;;;;;3.85;84.51;99279.20;1705513;82;21029;-80
2021/11/26 07:51:40;;;;;;;11.85;9.00;;;;;;;3.90;84.33;99280.19;1738228;82;21479;-79
2021/11/26 07:54:07;;;;;;;15.90;12.53;;;;;;;3.91;84.08;99281.00;1712966;82;21107;-79
2021/11/26 07:56:39;;;;;;;13.48;10.90;;;;;;;3.94;84.05;99281.38;1712978;82;21045;-78
2021/11/26 07:59:06;;;;;;;15.88;10.58;;;;;;;3.97;83.77;99275.33;1738098;82;21025;-74
2021/11/26 08:01:33;;;;;;;12.03;10.00;;;;;;;4.05;83.76;99283.03;1732486;82;21118;-82
2021/11/26 08:04:01;;;;;;;13.28;10.20;;;;;;;4.14;83.47;99287.05;1738249;82;20998;-77
2021/11/26 08:06:29;;;;;;;11.88;9.80;;;;;;;4.20;83.04;99279.53;1715864;82;21019;-78
2021/11/26 08:08:57;;;;;;;11.73;9.25;;;;;;;4.24;82.82;99275.39;1712899;82;21021;-79
2021/11/26 08:11:24;;;;;;;9.73;8.50;;;;;;;4.30;82.56;99267.36;1712824;82;21570;-82
2021/11/26 08:13:51;;;;;;;10.98;9.43;;;;;;;4.36;82.29;99273.11;1738346;82;21699;-81
2021/11/26 08:16:18;;;;;;;10.38;8.93;;;;;;;4.41;82.03;99267.16;1712824;82;21656;-76
2021/11/26 08:18:47;;;;;;;10.90;9.25;;;;;;;4.49;81.64;99285.49;1738763;82;20985;-76
2021/11/26 08:21:14;;;;;;;12.60;10.08;;;;;;;4.54;81.50;99273.66;1713616;82;21041;-76
2021/11/26 08:23:41;;;;;;;13.93;10.75;;;;;;;4.60;81.15;99278.11;1751669;81;21488;-76
2021/11/26 08:26:08;;;;;;;16.45;9.90;;;;;;;4.61;80.32;99270.40;1768490;80;21171;-75
2021/11/26 08:28:36;;;;;;;13.60;9.53;;;;;;;4.61;80.32;99270.40;1721379;82;21151;-76
2021/11/26 08:31:03;;;;;;;13.90;11.00;;;;;;;4.60;80.25;99280.78;1714668;82;21053;-76
2021/11/26 08:33:30;;;;;;;10.58;9.25;;;;;;;4.60;80.44;99278.63;1738827;81;21025;-78
2021/11/26 08:35:58;;;;;;;14.28;9.33;;;;;;;4.66;80.44;99279.05;1724933;81;21042;-77
2021/11/26 08:38:26;;;;;;;12.65;9.40;;;;;;;4.71;80.26;99272.55;1768262;81;21030;-79
2021/11/26 08:40:53;;;;;;;13.25;9.73;;;;;;;4.82;79.79;99273.14;1712908;82;21049;-79
2021/11/26 08:43:20;;;;;;;11.65;9.53;;;;;;;4.82;79.79;99273.14;1738217;82;20982;-77
2021/11/26 08:45:48;;;;;;;13.25;10.35;;;;;;;4.87;79.50;99274.63;1738272;82;21021;-81
2021/11/26 08:48:17;;;;;;;11.38;10.28;;;;;;;4.91;79.18;99270.98;1738835;81;21057;-78
2021/11/26 08:50:45;;;;;;;11.40;9.45;;;;;;;4.97;79.06;99259.45;1736403;82;21216;-77
2021/11/26 08:53:13;;;;;;;11.63;9.23;;;;;;;4.98;78.82;99257.90;1694664;82;21519;-80
2021/11/26 08:55:48;;;;;;;11.45;8.53;;;;;;;5.03;78.90;99259.89;1721984;82;20989;-77
2021/11/26 08:58:14;;;;;;;11.45;8.30;;;;;;;5.04;78.50;99254.83;1710898;82;21696;-78
2021/11/26 09:00:41;;;;;;;13.80;9.23;;;;;;;5.08;78.48;99254.70;1714592;82;21076;-77
2021/11/26 09:03:10;;;;;;;12.70;9.90;;;;;;;5.15;78.34;99243.42;1736559;82;21094;-79
2021/11/26 09:05:37;;;;;;;11.70;9.10;;;;;;;5.19;77.90;99240.59;1713269;82;21089;-77
2021/11/26 09:08:04;;;;;;;13.68;9.75;;;;;;;5.19;77.57;99233.92;1713571;82;21594;-78
2021/11/26 09:10:36;;;;;;;10.48;8.75;;;;;;;5.22;77.62;99233.49;1735911;82;20973;-78
2021/11/26 09:13:03;;;;;;;8.73;7.45;;;;;;;5.27;77.49;99230.96;1743582;81;21058;-81
2021/11/26 09:15:32;;;;;;;10.25;8.78;;;;;;;5.29;77.27;99231.53;1766772;81;21511;-82
2021/11/26 09:17:59;;;;;;;11.15;10.05;;;;;;;5.33;77.09;99219.88;1719321;82;21007;-82
2021/11/26 09:20:28;;;;;;;14.00;10.80;;;;;;;5.37;76.96;99221.87;1735939;82;21002;-75
2021/11/26 09:22:55;;;;;;;12.37;7.50;;;;;;;5.40;76.70;99215.28;1712637;82;21561;-80
2021/11/26 09:25:22;;;;;;;11.80;8.93;;;;;;;5.42;76.50;99199.33;1686949;82;21050;-80
2021/11/26 09:27:49;;;;;;;12.40;9.58;;;;;;;5.49;76.55;99204.06;1713134;82;21074;-79
2021/11/26 09:30:22;;;;;;;14.03;9.40;;;;;;;5.54;76.23;99211.38;1736195;82;20945;-81
2021/11/26 09:32:51;;;;;;;11.73;10.60;;;;;;;5.61;76.17;99199.55;1693982;84;21023;-83
2021/11/26 09:35:18;;;;;;;17.92;9.80;;;;;;;5.65;75.80;99199.92;1709550;82;21006;-80
2021/11/26 09:37:45;;;;;;;14.47;9.38;;;;;;;5.63;75.65;99191.32;1737175;82;21068;-80
2021/11/26 09:40:12;;;;;;;9.70;8.50;;;;;;;5.61;75.62;99192.09;1713530;82;21555;-84
2021/11/26 09:42:42;;;;;;;10.72;8.75;;;;;;;5.63;75.56;99184.66;1682613;84;21071;-83
2021/11/26 09:45:12;;;;;;;11.63;9.58;;;;;;;5.64;75.56;99183.62;1733628;81;21583;-81
2021/11/26 09:47:39;;;;;;;10.45;9.13;;;;;;;5.61;75.43;99172.88;1734970;82;21046;-76
2021/11/26 09:50:07;;;;;;;10.63;9.15;;;;;;;5.65;75.38;99173.24;1712222;82;21042;-77
2021/11/26 09:52:39;;;;;;;9.78;8.53;;;;;;;5.73;75.36;99177.41;1764717;81;21137;-76
2021/11/26 09:55:08;;;;;;;12.35;9.83;;;;;;;5.82;74.82;99164.02;1760579;81;21618;-80
2021/11/26 09:57:35;;;;;;;14.98;10.20;;;;;;;5.94;74.83;99157.69;1738500;82;21867;-78
2021/11/26 10:00:04;;;;;;;13.32;9.33;;;;;;;6.08;74.60;99153.73;1738864;81;20998;-78
2021/11/26 10:02:32;;;;;;;11.15;8.78;;;;;;;6.13;73.48;99151.17;1739757;81;21046;-76
2021/11/26 10:05:08;;;;;;;11.45;8.55;;;;;;;6.19;73.49;99154.73;1718824;81;20955;-77
2021/11/26 10:07:46;;;;;;;13.40;8.85;;;;;;;6.28;73.31;99152.55;1768755;81;21053;-73
2021/11/26 10:10:21;;;;;;;9.48;7.65;;;;;;;6.33;73.05;99135.30;1767747;81;21066;-76
2021/11/26 10:13:04;;;;;;;11.10;10.00;;;;;;;6.39;72.59;99128.98;1769027;81;20959;-75
2021/11/26 10:15:39;;;;;;;13.18;9.58;;;;;;;6.44;72.60;99124.56;1743296;81;21156;-75
2021/11/26 10:18:15;;;;;;;14.55;8.90;;;;;;;6.51;72.09;99122.58;1757692;81;21023;-76
2021/11/26 10:21:03;;;;;;;14.87;9.70;;;;;;;6.51;71.80;99120.43;1736845;82;21107;-76
2021/11/26 10:23:34;;;;;;;10.10;8.88;;;;;;;6.53;71.64;99104.44;1737952;81;21129;-72
2021/11/26 10:26:26;;;;;;;11.45;8.65;;;;;;;6.55;71.22;99108.22;1751243;81;21113;-78
2021/11/26 10:28:59;;;;;;;10.85;9.43;;;;;;;6.52;71.32;99104.70;1723755;82;21035;-77
2021/11/26 10:31:32;;;;;;;12.28;8.63;;;;;;;6.51;71.49;99100.39;1742309;81;21101;-73
2021/11/26 10:34:02;;;;;;;11.40;9.93;;;;;;;6.51;71.58;99087.85;1740673;80;21074;-77
2021/11/26 10:36:30;;;;;;;10.93;8.90;;;;;;;6.53;71.44;99079.58;1729362;82;21022;-73
2021/11/26 10:38:58;;;;;;;11.22;9.08;;;;;;;6.52;71.34;99084.11;1734532;82;21029;-74
2021/11/26 10:41:30;;;;;;;13.08;10.28;;;;;;;6.52;71.32;99077.98;1738677;82;21064;-72
2021/11/26 10:44:05;;;;;;;11.63;9.05;;;;;;;6.54;70.93;99077.20;1736435;82;21077;-73
2021/11/26 10:59:55;;;;;;;10.88;9.18;;;;;;;6.60;71.80;99086.13;1734414;82;21082;-72
2021/11/26 11:02:29;;;;;;;11.08;8.33;;;;;;;6.62;71.85;99091.50;1737724;82;21108;-76
2021/11/26 11:04:56;;;;;;;11.50;8.80;;;;;;;6.65;71.74;99088.38;1747645;81;20989;-73
2021/11/26 11:07:24;;;;;;;10.93;9.10;;;;;;;6.69;71.80;99092.70;1768595;81;21050;-79
2021/11/26 11:09:54;;;;;;;15.23;8.65;;;;;;;6.76;71.56;99086.70;1768882;81;21878;-78
2021/11/26 11:12:37;;;;;;;14.23;9.53;;;;;;;6.78;71.20;99088.59;1762707;80;21009;-78
2021/11/26 11:15:09;;;;;;;9.43;6.08;;;;;;;6.79;70.93;99091.04;1716321;82;20998;-76
2021/11/26 11:17:36;;;;;;;8.45;7.55;;;;;;;6.77;71.01;99083.77;1678947;84;21600;-78
2021/11/26 11:20:10;;;;;;;9.50;7.95;;;;;;;6.81;71.01;99078.78;1715862;82;21749;-82
2021/11/26 11:22:37;;;;;;;8.55;7.20;;;;;;;6.86;70.98;99081.52;1743050;81;21163;-80
2021/11/26 11:25:09;;;;;;;9.58;8.10;;;;;;;6.87;70.93;99078.61;1768346;81;21567;-71
2021/11/26 11:27:36;;;;;;;11.28;8.85;;;;;;;6.93;70.81;99074.98;1758007;81;21519;-76
2021/11/26 11:30:07;;;;;;;11.10;8.28;;;;;;;7.00;70.74;99072.95;1769644;81;21054;-83
2021/11/26 11:32:36;;;;;;;9.68;8.40;;;;;;;7.03;70.26;99062.31;1699122;82;21038;-78
2021/11/26 11:35:12;;;;;;;8.08;6.90;;;;;;;7.09;70.02;99061.36;1738972;82;21067;-88
2021/11/26 11:37:42;;;;;;;9.10;8.20;;;;;;;7.18;69.73;99053.73;1713277;82;21575;-77
2021/11/26 11:40:10;;;;;;;7.60;5.90;;;;;;;7.27;69.40;99051.75;1738272;82;21026;-83
2021/11/26 11:42:43;;;;;;;9.65;8.63;;;;;;;7.32;68.71;99058.52;1707997;83;21051;-78
2021/11/26 11:45:20;;;;;;;9.18;7.87;;;;;;;7.36;68.86;99061.50;1678763;84;20982;-76
2021/11/26 11:47:54;;;;;;;9.70;7.33;;;;;;;7.39;68.59;99056.99;1699712;82;22261;-82
2021/11/26 11:50:26;;;;;;;11.38;8.45;;;;;;;7.39;68.37;99064.49;1677609;84;37640;-74